Las horas y fechas están en horario UTC
Sumar 1 hora en el horario de Invierno y 2 horas en el de Verano

Informes METAR cercanos

 

LEZL - Sevilla (civ/Mil, Spain
Distance from station: NNE 24km
Actualización: 12/07/2020 20:00
Despejado
Despejado
 Viento del SO
Viento: SO 22 km/h
Temperatura: 35°C
Rocío: 17°C
Humedad: 34%
Barómetro: 1011 hPa
Resumen: Despejado
Visibility: greater than 10 km
2020/07/12 18:00 LEZL 121800Z 22012KT CAVOK 35/17 Q1011 NOSIG
LEMO - Moron (sp-Usafb), Spain
Distance from station: E 38km
Actualización: 12/07/2020 20:00
Despejado
Despejado
 Viento del O
Viento: O 20 km/h
Temperatura: 35°C
Rocío: 16°C
Humedad: 32%
Barómetro: 1012 hPa
Resumen: Despejado
Visibility: greater than 10 km
2020/07/12 18:00 LEMO 121800Z 26011KT 220V330 CAVOK 35/16 Q1012 NOSIG
LEJR - Jerez (civ/Mil), Spain
Distance from station: S 53km
Actualización: 12/07/2020 20:00
Despejado
Despejado
 Viento del O
Viento: O 15 km/h
Temperatura: 32°C
Heat Index: 34°C
Rocío: 19°C
Humedad: 46%
Barómetro: 1012 hPa
Resumen: Despejado
Visibility: greater than 10 km
2020/07/12 18:00 LEJR 121800Z 26008KT 220V300 CAVOK 32/19 Q1012
 
LERT - Rota Naval Stati, Spain
Distance from station: SSO 71km
Actualización: 12/07/2020 20:00
Despejado
Despejado
 Viento del OSO
Viento: OSO 20 km/h
Temperatura: 27°C
Heat Index: 29°C
Rocío: 21°C
Humedad: 70%
Barómetro: 1013 hPa
Resumen: Despejado
Visibility: greater than 10 km
2020/07/12 18:00 LERT 121800Z 25011KT CAVOK 27/21 Q1013 NOSIG
LEBA - Cordoba Airport, Spain
Distance from station: ENE 128km
Actualización: 12/07/2020 20:00
Despejado
Despejado
 Viento del OSO
Viento: OSO 11 km/h
Temperatura: 38°C
Rocío: 9°C
Humedad: 17%
Barómetro: 1011 hPa
Resumen: Despejado
Visibility: greater than 10 km
2020/07/12 18:00 LEBA 121800Z 24006KT 200V270 CAVOK 38/09 Q1011
LXGB - Gibraltar (civ/M, Gibraltar
Distance from station: SSE 137km
Actualización: 12/07/2020 19:50
Haze, Few clouds
Haze, Few clouds
 Viento del E
Viento: E 13 km/h
Temperatura: 25°C
Rocío: 21°C
Humedad: 79%
Barómetro: 1014 hPa
Resumen: Haze
Clouds: Few Clouds
Visibility: 7 km
Cloud details: Few Clouds 457 m
2020/07/12 17:50 LXGB 121750Z 10007KT 7000 HZ FEW015 25/21 Q1014 NOSIG RMK WHT WHT
 
LEMG - Malaga (civ/Mil), Spain
Distance from station: ESE 150km
Actualización: 12/07/2020 20:00
Despejado
Despejado
 Viento del ESE
Viento: ESE 11 km/h
Temperatura: 27°C
Heat Index: 29°C
Rocío: 22°C
Humedad: 74%
Barómetro: 1014 hPa
Resumen: Despejado
Visibility: greater than 10 km
2020/07/12 18:00 LEMG 121800Z 12006KT 090V150 CAVOK 27/22 Q1014 NOSIG
GMTT - Tangier/Boukhalf, Morocco
Distance from station: S 169km
Actualización: 12/07/2020 20:00
Parcialmente nuboso
Parcialmente nuboso
 Viento del NE
Viento: NE 30 km/h
Temperatura: 28°C
Heat Index: 29°C
Rocío: 20°C
Humedad: 62%
Barómetro: 1012 hPa
Clouds: Parcialmente nuboso
Visibility: 8 km
2020/07/12 18:00 GMTT 121800Z 04016KT 8000 NSC 28/20 Q1012 NOSIG
LPFR - Faro, Portugal
Distance from station: O 172km
Actualización: 12/07/2020 20:00
Despejado
Despejado
 Viento del O
Viento: O 26 km/h
Temperatura: 26°C
Rocío: 20°C
Humedad: 70%
Barómetro: 1014 hPa
Resumen: Despejado
Visibility: greater than 10 km
2020/07/12 18:00 LPFR 121800Z 27014KT CAVOK 26/20 Q1014
 
LPBJ - Beja (por/Ger-Af, Portugal
Distance from station: ONO 192km
Actualización: 12/07/2020 20:00
Despejado
Despejado
 Viento del NO
Viento: NO 26 km/h
Temperatura: 33°C
Rocío: 14°C
Humedad: 32%
Barómetro: 1014 hPa
Resumen: Despejado
Visibility: greater than 10 km
2020/07/12 18:00 LPBJ 121800Z 31014KT CAVOK 33/14 Q1014
LEBZ - Talavera Ab/Bada, Spain
Distance from station: NNO 194km
Actualización: 12/07/2020 20:00
Despejado
Despejado
 Viento del NNO
Viento: NNO 7 km/h
Temperatura: 37°C
Rocío: 11°C
Humedad: 21%
Barómetro: 1013 hPa
Resumen: Despejado
Visibility: greater than 10 km
2020/07/12 18:00 LEBZ 121800Z 33004KT 290V020 CAVOK 37/11 Q1013
LEMD - Madrid/Barajas, Spain
Distance from station: NE 415km
Actualización: 12/07/2020 20:00
Few Clouds
Few Clouds
 Viento del SE
Viento: SE 15 km/h
Temperatura: 29°C
Rocío: 13°C
Humedad: 37%
Barómetro: 1017 hPa
Clouds: Few Clouds
Visibility: 10 km
Cloud details: Few Clouds 2438 m
2020/07/12 18:00 LEMD 121800Z 13008KT 080V180 9999 FEW080TCU 29/13 Q1017 NOSIG